createdAt,value
2023-02-15T00:00:00.236Z,96.8
2023-02-15T00:01:00.286Z,96.5
2023-02-15T00:02:00.391Z,96.2
2023-02-15T00:03:00.342Z,96.2
2023-02-15T00:04:00.255Z,96.2
2023-02-15T00:05:00.250Z,96
2023-02-15T00:06:00.597Z,95.3
2023-02-15T00:07:00.263Z,95.5
2023-02-15T00:08:00.243Z,96.1
2023-02-15T00:09:00.268Z,95.9
2023-02-15T00:10:00.243Z,96
2023-02-15T00:11:00.263Z,95.9
2023-02-15T00:12:00.263Z,96.1
2023-02-15T00:13:00.264Z,95.9
2023-02-15T00:14:00.266Z,95.9
2023-02-15T00:15:00.250Z,95.6
2023-02-15T00:16:00.653Z,96.1
2023-02-15T00:17:00.268Z,96.1
2023-02-15T00:18:00.271Z,96.1
2023-02-15T00:19:00.253Z,96.1
2023-02-15T00:20:00.253Z,96.1
2023-02-15T00:21:00.286Z,95.9
2023-02-15T00:22:00.302Z,96.1
2023-02-15T00:23:00.276Z,95.9
2023-02-15T00:24:00.268Z,95.9
2023-02-15T00:25:00.280Z,96.4
2023-02-15T00:26:00.724Z,96.4
2023-02-15T00:27:00.279Z,96.2
2023-02-15T00:28:00.282Z,96.4
2023-02-15T00:29:00.264Z,96.4
2023-02-15T00:30:00.316Z,96.4
2023-02-15T00:31:00.422Z,96.4
2023-02-15T00:32:00.280Z,96.4
2023-02-15T00:33:00.304Z,96.2
2023-02-15T00:34:00.324Z,96.4
2023-02-15T00:35:00.303Z,96.4
2023-02-15T00:36:00.732Z,96.2
2023-02-15T00:37:00.300Z,96.2
2023-02-15T00:38:00.287Z,96.4
2023-02-15T00:39:00.312Z,96.4
2023-02-15T00:40:00.295Z,96.4
2023-02-15T00:41:00.293Z,96.2
2023-02-15T00:42:00.300Z,96.2
2023-02-15T00:43:00.318Z,96.2
2023-02-15T00:44:00.285Z,96.1
2023-02-15T00:45:00.296Z,96.1
2023-02-15T00:46:00.774Z,95.9
2023-02-15T00:47:00.282Z,96.1
2023-02-15T00:48:00.305Z,95.9
2023-02-15T00:49:00.283Z,96.1
2023-02-15T00:50:00.301Z,96.4
2023-02-15T00:51:00.303Z,96.1
2023-02-15T00:52:00.286Z,95.9
2023-02-15T00:53:00.314Z,96.1
2023-02-15T00:54:00.289Z,96.1
2023-02-15T00:55:00.287Z,96.1
2023-02-15T00:56:00.747Z,96
2023-02-15T00:57:00.287Z,96.3
2023-02-15T00:58:00.315Z,96.3
2023-02-15T00:59:00.298Z,96.2
2023-02-15T01:00:00.336Z,96.2
2023-02-15T01:01:00.379Z,96.7
2023-02-15T01:02:00.291Z,96.4
2023-02-15T01:03:00.324Z,96.6
2023-02-15T01:04:00.361Z,96.7
2023-02-15T01:05:00.316Z,96.7
2023-02-15T01:06:00.611Z,96.2
2023-02-15T01:07:00.304Z,96.7
2023-02-15T01:08:00.337Z,96.5
2023-02-15T01:09:00.329Z,96.5
2023-02-15T01:10:00.321Z,96.5
2023-02-15T01:11:00.318Z,96.6
2023-02-15T01:12:00.308Z,96.7
2023-02-15T01:13:00.333Z,96.7
2023-02-15T01:14:00.312Z,96.5
2023-02-15T01:15:00.330Z,96.7
2023-02-15T01:16:00.853Z,96.7
2023-02-15T01:17:00.315Z,96.7
2023-02-15T01:18:00.350Z,96.7
2023-02-15T01:19:00.317Z,96.5
2023-02-15T01:20:00.335Z,96.7
2023-02-15T01:21:00.346Z,96.7
2023-02-15T01:22:00.319Z,96.7
2023-02-15T01:23:00.345Z,96.7
2023-02-15T01:24:00.324Z,96.5
2023-02-15T01:25:00.332Z,96.7
2023-02-15T01:26:00.570Z,96.7
2023-02-15T01:27:00.340Z,96.5
2023-02-15T01:28:00.342Z,96.2
2023-02-15T01:29:00.333Z,96
2023-02-15T01:30:00.388Z,95.9
2023-02-15T01:31:00.505Z,96.1
2023-02-15T01:32:00.483Z,96
2023-02-15T01:33:00.362Z,95.8
2023-02-15T01:34:00.346Z,96
2023-02-15T01:35:00.349Z,96
2023-02-15T01:36:00.679Z,96
2023-02-15T01:37:00.434Z,96
2023-02-15T01:38:00.360Z,95.9
2023-02-15T01:39:00.372Z,96
2023-02-15T01:40:00.355Z,95.8
2023-02-15T01:41:00.341Z,96
2023-02-15T01:42:00.362Z,95.8
2023-02-15T01:43:00.357Z,95.8
2023-02-15T01:44:00.366Z,95.8
2023-02-15T01:45:00.370Z,96
2023-02-15T01:46:00.902Z,96
2023-02-15T01:47:00.364Z,96
2023-02-15T01:48:00.389Z,96
2023-02-15T01:49:00.359Z,95.8
2023-02-15T01:50:00.409Z,96
2023-02-15T01:51:00.563Z,96
2023-02-15T01:52:00.401Z,96
2023-02-15T01:53:00.395Z,95.5
2023-02-15T01:54:00.360Z,96
2023-02-15T01:55:00.452Z,95.5
2023-02-15T01:56:01.475Z,95.4
2023-02-15T01:57:00.482Z,95.2
2023-02-15T01:58:00.435Z,95.4
2023-02-15T01:59:00.463Z,95.4
2023-02-15T02:00:00.529Z,95.4
2023-02-15T02:01:01.366Z,95.2
2023-02-15T02:02:00.530Z,94.9
2023-02-15T02:03:00.524Z,94.8
2023-02-15T02:04:00.383Z,95
2023-02-15T02:05:00.596Z,94.7
2023-02-15T02:06:00.926Z,94.8
2023-02-15T02:07:00.574Z,95
2023-02-15T02:08:00.558Z,95
2023-02-15T02:09:00.538Z,95
2023-02-15T02:10:00.721Z,95.3
2023-02-15T02:11:00.526Z,95.1
2023-02-15T02:12:00.583Z,95.1
2023-02-15T02:13:00.558Z,95
2023-02-15T02:14:01.496Z,95.1
2023-02-15T02:15:00.382Z,95.1
2023-02-15T02:16:00.888Z,95.3
2023-02-15T02:17:00.585Z,95.1
2023-02-15T02:18:00.492Z,95.1
2023-02-15T02:19:00.587Z,95.1
2023-02-15T02:20:00.510Z,95.1
2023-02-15T02:21:00.514Z,95.3
2023-02-15T02:22:01.207Z,95.3
2023-02-15T02:23:00.437Z,95.3
2023-02-15T02:24:00.541Z,95.1
2023-02-15T02:25:00.441Z,95.3
2023-02-15T02:26:00.794Z,95.3
2023-02-15T02:27:00.423Z,95.3
2023-02-15T02:28:00.405Z,95.6
2023-02-15T02:29:00.414Z,95.6
2023-02-15T02:30:00.771Z,95.3
2023-02-15T02:31:00.565Z,95.6
2023-02-15T02:32:00.493Z,95.6
2023-02-15T02:33:00.403Z,95.7
2023-02-15T02:34:00.412Z,95.6
2023-02-15T02:35:00.432Z,95.7
2023-02-15T02:36:00.706Z,95.9
2023-02-15T02:37:00.396Z,95.7
2023-02-15T02:38:00.410Z,95.9
2023-02-15T02:39:00.414Z,95.9
2023-02-15T02:40:00.441Z,95.9
2023-02-15T02:41:00.418Z,95.7
2023-02-15T02:42:00.394Z,95.7
2023-02-15T02:43:00.419Z,95.9
2023-02-15T02:44:00.394Z,95.9
2023-02-15T02:45:00.400Z,95.7
2023-02-15T02:46:00.785Z,95.9
2023-02-15T02:47:00.403Z,95.9
2023-02-15T02:48:00.416Z,95.9
2023-02-15T02:49:00.418Z,95.7
2023-02-15T02:50:00.410Z,95.9
2023-02-15T02:51:00.434Z,95.9
2023-02-15T02:52:00.422Z,95.7
2023-02-15T02:53:00.412Z,95.9
2023-02-15T02:54:00.428Z,95.7
2023-02-15T02:55:00.426Z,95.9
2023-02-15T02:56:00.760Z,95.6
2023-02-15T02:57:00.408Z,95.6
2023-02-15T02:58:00.411Z,95.1
2023-02-15T02:59:00.416Z,95.2
2023-02-15T03:00:00.415Z,95.1
2023-02-15T03:01:01.592Z,95.1
2023-02-15T03:02:01.623Z,95.3
2023-02-15T03:03:01.648Z,95.4
2023-02-15T03:04:01.587Z,95.6
2023-02-15T03:05:01.576Z,95.4
2023-02-15T03:06:01.940Z,95.4
2023-02-15T03:07:01.585Z,95.4
2023-02-15T03:08:01.575Z,95.6
2023-02-15T03:09:01.570Z,95.4
2023-02-15T03:10:01.644Z,95.6
2023-02-15T03:11:01.600Z,95.4
2023-02-15T03:12:01.584Z,95.7
2023-02-15T03:13:01.589Z,95.7
2023-02-15T03:14:01.594Z,95.7
2023-02-15T03:15:01.634Z,95.7
2023-02-15T03:16:01.923Z,95.7
2023-02-15T03:17:01.598Z,95.6
2023-02-15T03:18:01.572Z,95.1
2023-02-15T03:19:01.577Z,94.8
2023-02-15T03:20:01.609Z,94.8
2023-02-15T03:21:01.613Z,95
2023-02-15T03:22:01.763Z,94.7
2023-02-15T03:23:01.597Z,94.7
2023-02-15T03:24:01.592Z,94.7
2023-02-15T03:25:01.597Z,94.9
2023-02-15T03:26:01.949Z,94.6
2023-02-15T03:27:01.585Z,94.9
2023-02-15T03:28:01.605Z,94.7
2023-02-15T03:29:01.602Z,94.9
2023-02-15T03:30:01.842Z,94.7
2023-02-15T03:31:01.653Z,94.9
2023-02-15T03:32:01.803Z,94.9
2023-02-15T03:33:01.587Z,94.4
2023-02-15T03:34:01.609Z,94.4
2023-02-15T03:35:01.612Z,94.1
2023-02-15T03:36:01.954Z,94.1
2023-02-15T03:37:01.611Z,93.8
2023-02-15T03:38:01.598Z,94
2023-02-15T03:39:01.600Z,93.8
2023-02-15T03:40:01.659Z,93.8
2023-02-15T03:41:01.630Z,93.8
2023-02-15T03:42:01.632Z,93.8
2023-02-15T03:43:01.601Z,93.8
2023-02-15T03:44:01.620Z,93.7
2023-02-15T03:45:01.632Z,93.5
2023-02-15T03:46:01.985Z,93.5
2023-02-15T03:47:01.634Z,93.7
2023-02-15T03:48:01.619Z,93.9
2023-02-15T03:49:01.602Z,93.4
2023-02-15T03:50:01.639Z,93.7
2023-02-15T03:51:01.633Z,93.7
2023-02-15T03:52:01.609Z,93.7
2023-02-15T03:53:01.614Z,94.2
2023-02-15T03:54:01.610Z,93.9
2023-02-15T03:55:01.628Z,93.7
2023-02-15T03:56:01.950Z,94.2
2023-02-15T03:57:01.612Z,94
2023-02-15T03:58:01.617Z,94
2023-02-15T03:59:01.614Z,94.3
2023-02-15T04:00:01.740Z,94.3
2023-02-15T04:01:01.688Z,94.5
2023-02-15T04:02:01.684Z,94.3
2023-02-15T04:03:01.662Z,94.3
2023-02-15T04:04:01.621Z,94.8
2023-02-15T04:05:01.644Z,94.9
2023-02-15T04:06:01.901Z,94.9
2023-02-15T04:07:01.633Z,95
2023-02-15T04:08:01.625Z,95.3
2023-02-15T04:09:01.644Z,95.8
2023-02-15T04:10:01.723Z,95.6
2023-02-15T04:11:01.640Z,95.6
2023-02-15T04:12:01.627Z,95.6
2023-02-15T04:13:01.632Z,95.9
2023-02-15T04:14:01.627Z,95.8
2023-02-15T04:15:01.663Z,95.8
2023-02-15T04:16:02.039Z,95.8
2023-02-15T04:17:01.632Z,95.8
2023-02-15T04:18:01.652Z,95.8
2023-02-15T04:19:01.658Z,95.6
2023-02-15T04:20:01.666Z,95.6
2023-02-15T04:21:01.637Z,95.6
2023-02-15T04:22:01.636Z,95.6
2023-02-15T04:23:01.632Z,95.6
2023-02-15T04:24:01.656Z,95.6
2023-02-15T04:25:01.660Z,95.6
2023-02-15T04:26:01.939Z,95.6
2023-02-15T04:27:01.656Z,95.8
2023-02-15T04:28:01.641Z,95.8
2023-02-15T04:29:01.636Z,95.8
2023-02-15T04:30:01.726Z,95.6
2023-02-15T04:31:01.777Z,95.6
2023-02-15T04:32:01.725Z,95.6
2023-02-15T04:33:01.671Z,95.6
2023-02-15T04:34:01.656Z,95.8
2023-02-15T04:35:01.711Z,95.6
2023-02-15T04:36:01.996Z,95.6
2023-02-15T04:37:01.648Z,95.6
2023-02-15T04:38:01.659Z,95.6
2023-02-15T04:39:01.666Z,95.8
2023-02-15T04:40:01.693Z,95.3
2023-02-15T04:41:01.646Z,95.5
2023-02-15T04:42:01.649Z,95
2023-02-15T04:43:01.648Z,95
2023-02-15T04:44:01.655Z,95
2023-02-15T04:45:01.675Z,95
2023-02-15T04:46:02.063Z,94.7
2023-02-15T04:47:01.672Z,94.6
2023-02-15T04:48:01.685Z,94.8
2023-02-15T04:49:01.656Z,94.6
2023-02-15T04:50:01.708Z,94.6
2023-02-15T04:51:00.228Z,94.3
2023-02-15T04:52:00.234Z,94.3
2023-02-15T04:53:00.259Z,94.3
2023-02-15T04:54:00.232Z,94.5
2023-02-15T04:55:00.232Z,94.3
2023-02-15T04:56:00.517Z,94.3
2023-02-15T04:57:00.234Z,94.3
2023-02-15T04:58:00.259Z,94.5
2023-02-15T04:59:00.235Z,94.3
2023-02-15T05:00:00.333Z,94.6
2023-02-15T05:01:00.335Z,94.6
2023-02-15T05:02:00.240Z,94.6
2023-02-15T05:03:00.236Z,94.8
2023-02-15T05:04:00.317Z,95.1
2023-02-15T05:05:00.236Z,94.9
2023-02-15T05:06:00.485Z,94.6
2023-02-15T05:07:00.274Z,94.9
2023-02-15T05:08:00.249Z,94.8
2023-02-15T05:09:00.280Z,94.3
2023-02-15T05:10:00.264Z,94.3
2023-02-15T05:11:00.271Z,94.3
2023-02-15T05:12:00.246Z,94.3
2023-02-15T05:13:00.258Z,94.3
2023-02-15T05:14:00.266Z,94.3
2023-02-15T05:15:00.252Z,94.5
2023-02-15T05:16:00.758Z,94.5
2023-02-15T05:17:00.269Z,94.2
2023-02-15T05:18:00.255Z,94.2
2023-02-15T05:19:00.277Z,94
2023-02-15T05:20:00.276Z,94
2023-02-15T05:21:00.287Z,94
2023-02-15T05:22:00.257Z,94
2023-02-15T05:23:00.254Z,94
2023-02-15T05:24:00.258Z,94
2023-02-15T05:25:00.260Z,94.3
2023-02-15T05:26:00.652Z,94.3
2023-02-15T05:27:00.281Z,94.5
2023-02-15T05:28:00.277Z,94.3
2023-02-15T05:29:00.265Z,94.3
2023-02-15T05:30:00.390Z,94.3
2023-02-15T05:31:00.563Z,94.3
2023-02-15T05:32:00.540Z,94.5
2023-02-15T05:33:00.295Z,94.3
2023-02-15T05:34:00.295Z,94.3
2023-02-15T05:35:00.279Z,94
2023-02-15T05:36:01.990Z,94.3
2023-02-15T05:37:00.282Z,94
2023-02-15T05:38:00.276Z,94
2023-02-15T05:39:00.285Z,94
2023-02-15T05:40:00.317Z,94
2023-02-15T05:41:00.312Z,94
2023-02-15T05:42:00.291Z,94
2023-02-15T05:43:00.299Z,94
2023-02-15T05:44:00.290Z,93.8
2023-02-15T05:45:00.286Z,93.7
2023-02-15T05:46:00.648Z,93.6
2023-02-15T05:47:00.286Z,93.8
2023-02-15T05:48:00.416Z,93.5
2023-02-15T05:49:00.316Z,93
2023-02-15T05:50:00.300Z,93
2023-02-15T05:51:00.338Z,93.2
2023-02-15T05:52:00.296Z,93
2023-02-15T05:53:00.294Z,93
2023-02-15T05:54:00.296Z,93
2023-02-15T05:55:00.305Z,92.7
2023-02-15T05:56:01.269Z,92.7
2023-02-15T05:57:00.302Z,93.2
2023-02-15T05:58:00.302Z,93.2
2023-02-15T05:59:00.303Z,92.7
2023-02-15T06:00:00.304Z,93
2023-02-15T06:01:00.333Z,93
2023-02-15T06:02:00.329Z,93
2023-02-15T06:03:00.340Z,93.2
2023-02-15T06:04:00.325Z,93
2023-02-15T06:05:00.314Z,93.3
2023-02-15T06:06:00.762Z,93.6
2023-02-15T06:07:00.322Z,93.6
2023-02-15T06:08:00.323Z,93.6
2023-02-15T06:09:00.337Z,93.6
2023-02-15T06:10:00.328Z,93.6
2023-02-15T06:11:00.343Z,93.5
2023-02-15T06:12:00.323Z,93.9
2023-02-15T06:13:00.320Z,93.6
2023-02-15T06:14:00.630Z,93.9
2023-02-15T06:15:00.339Z,94.2
2023-02-15T06:16:00.778Z,94.2
2023-02-15T06:17:00.346Z,94.2
2023-02-15T06:18:00.327Z,94.2
2023-02-15T06:19:00.488Z,94.2
2023-02-15T06:20:00.869Z,94.4
2023-02-15T06:21:01.896Z,94.5
2023-02-15T06:22:00.826Z,94.5
2023-02-15T06:23:00.797Z,94.2
2023-02-15T06:24:00.320Z,94.5
2023-02-15T06:25:00.342Z,94.8
2023-02-15T06:26:00.795Z,94.8
2023-02-15T06:27:00.346Z,95.1
2023-02-15T06:28:00.332Z,95.3
2023-02-15T06:29:00.325Z,95.4
2023-02-15T06:30:00.417Z,95.4
2023-02-15T06:31:00.469Z,95.4
2023-02-15T06:32:00.455Z,95.4
2023-02-15T06:33:00.449Z,95.4
2023-02-15T06:34:00.351Z,95.4
2023-02-15T06:35:00.482Z,95.7
2023-02-15T06:36:00.674Z,95.7
2023-02-15T06:37:00.404Z,95.9
2023-02-15T06:38:00.487Z,95.8
2023-02-15T06:39:00.816Z,95.4
2023-02-15T06:40:03.687Z,95.5
2023-02-15T06:41:01.000Z,95.4
2023-02-15T06:42:01.304Z,95.4
2023-02-15T06:43:00.487Z,95.5
2023-02-15T06:44:00.552Z,95.4
2023-02-15T06:45:00.534Z,95.8
2023-02-15T06:46:00.999Z,95.8
2023-02-15T06:47:00.540Z,95.8
2023-02-15T06:48:00.522Z,95.8
2023-02-15T06:49:00.663Z,95.5
2023-02-15T06:50:00.551Z,95.5
2023-02-15T06:51:00.562Z,95.7
2023-02-15T06:52:00.571Z,95.7
2023-02-15T06:53:00.579Z,95.5
2023-02-15T06:54:00.536Z,95.2
2023-02-15T06:55:01.427Z,94.9
2023-02-15T06:56:00.701Z,94.9
2023-02-15T06:57:00.494Z,94.9
2023-02-15T06:58:00.514Z,94.9
2023-02-15T06:59:00.549Z,94.9
2023-02-15T07:00:00.946Z,94.6
2023-02-15T07:01:00.550Z,94.9
2023-02-15T07:02:00.446Z,94.8
2023-02-15T07:03:00.375Z,94.3
2023-02-15T07:04:00.515Z,94.6
2023-02-15T07:05:00.461Z,94.3
2023-02-15T07:06:00.777Z,94.3
2023-02-15T07:07:00.383Z,94.5
2023-02-15T07:08:00.399Z,94.3
2023-02-15T07:09:00.377Z,94
2023-02-15T07:10:00.403Z,94.3
2023-02-15T07:11:00.779Z,94.3
2023-02-15T07:12:00.366Z,94.3
2023-02-15T07:13:00.364Z,94
2023-02-15T07:14:00.558Z,94
2023-02-15T07:15:00.392Z,94
2023-02-15T07:16:00.708Z,94
2023-02-15T07:17:00.368Z,93.7
2023-02-15T07:18:00.368Z,93.7
2023-02-15T07:19:00.372Z,93.7
2023-02-15T07:20:00.408Z,93.4
2023-02-15T07:21:00.486Z,93.7
2023-02-15T07:22:00.374Z,93.7
2023-02-15T07:23:00.378Z,93.7
2023-02-15T07:24:00.398Z,93.7
2023-02-15T07:25:00.406Z,93.7
2023-02-15T07:26:00.786Z,93.7
2023-02-15T07:27:00.377Z,94.1
2023-02-15T07:28:00.397Z,94
2023-02-15T07:29:00.400Z,94
2023-02-15T07:30:00.431Z,94.1
2023-02-15T07:31:00.471Z,94.1
2023-02-15T07:32:00.441Z,93.8
2023-02-15T07:33:00.835Z,94.1
2023-02-15T07:34:00.411Z,93.8
2023-02-15T07:35:00.398Z,93.8
2023-02-15T07:36:00.635Z,93.8
2023-02-15T07:37:00.402Z,93.8
2023-02-15T07:38:00.387Z,93.8
2023-02-15T07:39:00.408Z,94.3
2023-02-15T07:40:00.408Z,94.1
2023-02-15T07:41:00.402Z,93.8
2023-02-15T07:42:00.413Z,94.4
2023-02-15T07:43:00.531Z,94.6
2023-02-15T07:44:00.424Z,94.1
2023-02-15T07:45:00.415Z,94.5
2023-02-15T07:46:00.832Z,94.2
2023-02-15T07:47:00.393Z,94.5
2023-02-15T07:48:00.397Z,94.2
2023-02-15T07:49:00.430Z,94.5
2023-02-15T07:50:00.436Z,94.2
2023-02-15T07:51:00.411Z,94.2
2023-02-15T07:52:00.420Z,93.9
2023-02-15T07:53:00.426Z,94.1
2023-02-15T07:54:00.454Z,93.9
2023-02-15T07:55:00.423Z,93.9
2023-02-15T07:56:00.714Z,93.9
2023-02-15T07:57:00.454Z,93.9
2023-02-15T07:58:00.425Z,94
2023-02-15T07:59:00.445Z,93.9
2023-02-15T08:00:00.528Z,93.8
2023-02-15T08:01:00.416Z,93.7
2023-02-15T08:02:00.433Z,93.4
2023-02-15T08:03:00.563Z,93.4
2023-02-15T08:04:00.518Z,93.1
2023-02-15T08:05:00.417Z,93.6
2023-02-15T08:06:01.303Z,93.4
2023-02-15T08:07:00.862Z,93.3
2023-02-15T08:08:01.032Z,93.1
2023-02-15T08:09:00.437Z,93.1
2023-02-15T08:10:00.453Z,93.1
2023-02-15T08:11:00.439Z,92.8
2023-02-15T08:12:00.446Z,92.8
2023-02-15T08:13:00.478Z,92.8
2023-02-15T08:14:00.526Z,92.8
2023-02-15T08:15:00.468Z,92.9
2023-02-15T08:16:00.776Z,93.4
2023-02-15T08:17:00.435Z,93.8
2023-02-15T08:18:00.459Z,94.2
2023-02-15T08:19:00.456Z,94.3
2023-02-15T08:20:00.457Z,92.8
2023-02-15T08:21:00.447Z,91.6
2023-02-15T08:22:00.452Z,90.9
2023-02-15T08:23:00.456Z,90.1
2023-02-15T08:24:00.462Z,89.5
2023-02-15T08:25:00.466Z,88.9
2023-02-15T08:26:00.878Z,88.9
2023-02-15T08:27:00.472Z,88.8
2023-02-15T08:28:00.468Z,88.9
2023-02-15T08:29:00.478Z,88.8
2023-02-15T08:30:00.563Z,88.9
2023-02-15T08:31:01.265Z,89
2023-02-15T08:32:00.529Z,88.4
2023-02-15T08:33:00.694Z,88.5
2023-02-15T08:34:00.677Z,88.5
2023-02-15T08:35:01.073Z,89
2023-02-15T08:36:00.811Z,89.4
2023-02-15T08:37:00.480Z,89.2
2023-02-15T08:38:00.476Z,89.2
2023-02-15T08:39:00.481Z,88.9
2023-02-15T08:40:00.495Z,89.5
2023-02-15T08:41:00.823Z,89.2
2023-02-15T08:42:00.507Z,89.7
2023-02-15T08:43:00.473Z,89.7
2023-02-15T08:44:00.472Z,89.5
2023-02-15T08:45:00.474Z,89.7
2023-02-15T08:46:00.629Z,89.7
2023-02-15T08:47:00.488Z,89.5
2023-02-15T08:48:00.471Z,89.7
2023-02-15T08:49:00.894Z,89.7
2023-02-15T08:50:00.520Z,89.5
2023-02-15T08:51:00.743Z,89.8
2023-02-15T08:52:00.502Z,89.9
2023-02-15T08:53:00.477Z,90
2023-02-15T08:54:00.477Z,89.7
2023-02-15T08:55:00.497Z,89.6
2023-02-15T08:56:00.478Z,90.1
2023-02-15T08:57:00.501Z,90.1
2023-02-15T08:58:00.476Z,90.1
2023-02-15T08:59:00.482Z,90.2
2023-02-15T09:00:00.550Z,89.6
2023-02-15T09:01:01.330Z,90.1
2023-02-15T09:02:00.979Z,89.9
2023-02-15T09:03:00.483Z,90.2
2023-02-15T09:04:00.519Z,89.9
2023-02-15T09:05:00.507Z,89.8
2023-02-15T09:06:00.500Z,90.4
2023-02-15T09:07:00.516Z,90.2
2023-02-15T09:08:00.496Z,90.1
2023-02-15T09:09:00.504Z,90.2
2023-02-15T09:10:00.514Z,90.4
2023-02-15T09:11:00.733Z,90.3
2023-02-15T09:12:00.517Z,90.3
2023-02-15T09:13:00.487Z,90.6
2023-02-15T09:14:00.843Z,90.3
2023-02-15T09:15:00.540Z,90.5
2023-02-15T09:16:00.503Z,90.2
2023-02-15T09:17:00.516Z,90
2023-02-15T09:18:00.507Z,90
2023-02-15T09:19:00.500Z,90.5
2023-02-15T09:20:00.519Z,90.3
2023-02-15T09:21:00.882Z,90.5
2023-02-15T09:22:00.517Z,90.5
2023-02-15T09:23:00.497Z,90.8
2023-02-15T09:24:00.516Z,90.6
2023-02-15T09:25:00.519Z,90.8
2023-02-15T09:26:00.522Z,90.4
2023-02-15T09:27:00.549Z,90.4
2023-02-15T09:28:00.505Z,90.4
2023-02-15T09:29:00.910Z,90.4
2023-02-15T09:30:00.764Z,90.4
2023-02-15T09:31:01.159Z,90.6
2023-02-15T09:32:00.588Z,90.3
2023-02-15T09:33:00.507Z,90
2023-02-15T09:34:00.506Z,90
2023-02-15T09:35:00.529Z,90
2023-02-15T09:36:00.530Z,90.1
2023-02-15T09:37:00.516Z,90
2023-02-15T09:38:00.516Z,90
2023-02-15T09:39:00.519Z,90
2023-02-15T09:40:00.558Z,90
2023-02-15T09:41:00.969Z,90
2023-02-15T09:42:00.534Z,89.8
2023-02-15T09:43:00.512Z,89.1
2023-02-15T09:44:00.520Z,89.3
2023-02-15T09:45:00.542Z,89.6
2023-02-15T09:46:00.539Z,89.3
2023-02-15T09:47:00.556Z,88.8
2023-02-15T09:48:00.522Z,88.7
2023-02-15T09:49:00.537Z,88.6
2023-02-15T09:50:00.552Z,88.8
2023-02-15T09:51:00.794Z,88.9
2023-02-15T09:52:00.554Z,88.7
2023-02-15T09:53:00.562Z,88.8
2023-02-15T09:54:00.529Z,89
2023-02-15T09:55:00.531Z,89.5
2023-02-15T09:56:00.529Z,89.5
2023-02-15T09:57:00.555Z,89.3
2023-02-15T09:58:00.546Z,89.3
2023-02-15T09:59:00.548Z,89.2
2023-02-15T10:00:00.542Z,89.2
2023-02-15T10:01:01.005Z,89.5
2023-02-15T10:02:00.557Z,89
2023-02-15T10:03:00.549Z,88.1
2023-02-15T10:04:00.565Z,88.3
2023-02-15T10:05:00.568Z,87.5
2023-02-15T10:06:00.563Z,87.7
2023-02-15T10:07:00.562Z,87.8
2023-02-15T10:08:00.543Z,88.3
2023-02-15T10:09:00.551Z,87.7
2023-02-15T10:10:00.563Z,87.7
2023-02-15T10:11:01.049Z,87.5
2023-02-15T10:12:00.590Z,87.7
2023-02-15T10:13:00.556Z,87.5
2023-02-15T10:14:00.549Z,87.2
2023-02-15T10:15:00.553Z,87.5
2023-02-15T10:16:00.570Z,87.5
2023-02-15T10:17:00.605Z,86.9
2023-02-15T10:18:00.586Z,87.1
2023-02-15T10:19:00.560Z,87.7
2023-02-15T10:20:00.606Z,87.5
2023-02-15T10:21:01.059Z,88
2023-02-15T10:22:00.589Z,88.3
2023-02-15T10:23:00.559Z,88.6
2023-02-15T10:24:00.562Z,88.6
2023-02-15T10:25:00.579Z,88.2
2023-02-15T10:26:00.873Z,88
2023-02-15T10:27:00.588Z,88.1
2023-02-15T10:28:00.603Z,88.2
2023-02-15T10:29:00.573Z,88.2
2023-02-15T10:30:00.624Z,88.4
2023-02-15T10:31:00.998Z,87.9
2023-02-15T10:32:00.705Z,88.1
2023-02-15T10:33:00.577Z,88.1
2023-02-15T10:34:00.596Z,87.6
2023-02-15T10:35:00.596Z,87.8
2023-02-15T10:36:00.604Z,88.1
2023-02-15T10:37:00.574Z,87.8
2023-02-15T10:38:00.596Z,87.3
2023-02-15T10:39:00.593Z,87.5
2023-02-15T10:40:00.603Z,87.3
2023-02-15T10:41:00.953Z,87.5
2023-02-15T10:42:00.596Z,86.9
2023-02-15T10:43:00.601Z,86.9
2023-02-15T10:44:00.578Z,86.6
2023-02-15T10:45:00.579Z,86.9
2023-02-15T10:46:00.644Z,86.6
2023-02-15T10:47:00.601Z,86.6
2023-02-15T10:48:00.657Z,87.3
2023-02-15T10:49:00.585Z,87.1
2023-02-15T10:50:00.612Z,87.3
2023-02-15T10:51:00.807Z,87
2023-02-15T10:52:00.538Z,86
2023-02-15T10:53:00.561Z,86
2023-02-15T10:54:00.502Z,85.9
2023-02-15T10:55:00.467Z,86.4
2023-02-15T10:56:00.418Z,85.9
2023-02-15T10:57:00.429Z,85.3
2023-02-15T10:58:01.415Z,85.7
2023-02-15T10:59:00.342Z,85.6
2023-02-15T11:00:00.430Z,86.1
2023-02-15T11:01:00.688Z,86.1
2023-02-15T11:02:00.302Z,86.1
2023-02-15T11:03:00.300Z,85.5
2023-02-15T11:04:00.251Z,85.5
2023-02-15T11:05:00.344Z,85.5
2023-02-15T11:06:00.233Z,84.3
2023-02-15T11:07:00.254Z,84.2
2023-02-15T11:08:00.362Z,83.6
2023-02-15T11:09:00.401Z,83.9
2023-02-15T11:10:00.298Z,83.8
2023-02-15T11:11:00.755Z,83.4
2023-02-15T11:12:00.292Z,83.6
2023-02-15T11:13:00.291Z,83.5
2023-02-15T11:14:00.544Z,83.6
2023-02-15T11:15:00.265Z,83.6
2023-02-15T11:16:00.290Z,83.4
2023-02-15T11:17:00.213Z,84.3
2023-02-15T11:18:00.223Z,84.9
2023-02-15T11:19:00.206Z,84.7
2023-02-15T11:20:00.218Z,84.1
2023-02-15T11:21:00.642Z,83.7
2023-02-15T11:22:00.224Z,83.7
2023-02-15T11:23:00.219Z,83.7
2023-02-15T11:24:00.212Z,83.7
2023-02-15T11:25:00.221Z,84
2023-02-15T11:26:00.212Z,84
2023-02-15T11:27:00.319Z,83.1
2023-02-15T11:28:00.225Z,83.7
2023-02-15T11:29:00.208Z,84.3
2023-02-15T11:30:00.350Z,84.4
2023-02-15T11:31:00.472Z,84
2023-02-15T11:32:00.355Z,84.4
2023-02-15T11:33:00.232Z,83.7
2023-02-15T11:34:00.220Z,83.4
2023-02-15T11:35:00.214Z,83.1
2023-02-15T11:36:00.215Z,83
2023-02-15T11:37:00.236Z,83
2023-02-15T11:38:00.231Z,82.2
2023-02-15T11:39:00.273Z,81.9
2023-02-15T11:40:00.216Z,81.8
2023-02-15T11:41:00.674Z,81.3
2023-02-15T11:42:00.268Z,81
2023-02-15T11:43:00.230Z,80.7
2023-02-15T11:44:00.245Z,81.1
2023-02-15T11:45:00.244Z,81
2023-02-15T11:46:00.400Z,81.9
2023-02-15T11:47:00.252Z,82.4
2023-02-15T11:48:00.257Z,82.5
2023-02-15T11:49:00.223Z,82.5
2023-02-15T11:50:00.256Z,82.4
2023-02-15T11:51:00.508Z,82.6
2023-02-15T11:52:00.230Z,82
2023-02-15T11:53:00.255Z,82
2023-02-15T11:54:00.230Z,81.3
2023-02-15T11:55:00.258Z,81.3
2023-02-15T11:56:00.239Z,81.3
2023-02-15T11:57:00.237Z,82
2023-02-15T11:58:00.252Z,82
2023-02-15T11:59:00.234Z,81.4
2023-02-15T12:00:00.234Z,81.1
2023-02-15T12:01:00.635Z,81.4
2023-02-15T12:02:00.267Z,82
2023-02-15T12:03:00.326Z,81.7
2023-02-15T12:04:00.314Z,81.4
2023-02-15T12:05:00.240Z,81.7
2023-02-15T12:06:00.236Z,81.4
2023-02-15T12:07:03.125Z,80.8
2023-02-15T12:08:00.260Z,80.8
2023-02-15T12:09:00.245Z,81.4
2023-02-15T12:10:00.261Z,81.4
2023-02-15T12:11:00.749Z,81.1
2023-02-15T12:12:00.260Z,81.4
2023-02-15T12:13:00.267Z,80.8
2023-02-15T12:14:00.261Z,80.8
2023-02-15T12:15:00.275Z,80.8
2023-02-15T12:16:00.304Z,79.9
2023-02-15T12:17:00.281Z,80.2
2023-02-15T12:18:00.276Z,79.6
2023-02-15T12:19:00.256Z,80.2
2023-02-15T12:20:00.266Z,79.3
2023-02-15T12:21:00.533Z,79.6
2023-02-15T12:22:00.273Z,80.2
2023-02-15T12:23:00.254Z,79.5
2023-02-15T12:24:00.255Z,79.6
2023-02-15T12:25:00.286Z,79.6
2023-02-15T12:26:00.255Z,79.6
2023-02-15T12:27:00.315Z,79
2023-02-15T12:28:00.274Z,79.6
2023-02-15T12:29:00.268Z,78.7
2023-02-15T12:30:00.363Z,79.6
2023-02-15T12:31:00.701Z,78.4
2023-02-15T12:32:00.397Z,78.9
2023-02-15T12:33:00.270Z,79.3
2023-02-15T12:34:00.265Z,78.7
2023-02-15T12:35:01.490Z,79
2023-02-15T12:36:00.662Z,79
2023-02-15T12:37:00.294Z,78.1
2023-02-15T12:38:00.275Z,77.8
2023-02-15T12:39:00.282Z,78.4
2023-02-15T12:40:00.313Z,78.4
2023-02-15T12:41:01.174Z,78.4
2023-02-15T12:42:00.300Z,77.5
2023-02-15T12:43:00.334Z,77.8
2023-02-15T12:44:00.278Z,77.2
2023-02-15T12:45:00.295Z,77.5
2023-02-15T12:46:00.598Z,77.2
2023-02-15T12:47:00.362Z,77.8
2023-02-15T12:48:00.297Z,77.2
2023-02-15T12:49:00.288Z,76.9
2023-02-15T12:50:00.298Z,76.5
2023-02-15T12:51:00.309Z,78.1
2023-02-15T12:52:00.305Z,77.8
2023-02-15T12:53:00.305Z,77.2
2023-02-15T12:54:00.288Z,76.9
2023-02-15T12:55:00.315Z,77.2
2023-02-15T12:56:00.309Z,77.5
2023-02-15T12:57:00.320Z,77.5
2023-02-15T12:58:00.295Z,77.5
2023-02-15T12:59:00.295Z,77.8
2023-02-15T13:00:00.309Z,77.5
2023-02-15T13:01:00.720Z,77.8
2023-02-15T13:02:00.342Z,77.8
2023-02-15T13:03:00.297Z,77.8
2023-02-15T13:04:00.322Z,77.8
2023-02-15T13:05:00.305Z,78.4
2023-02-15T13:06:00.318Z,78.4
2023-02-15T13:07:00.306Z,78.2
2023-02-15T13:08:00.305Z,78.1
2023-02-15T13:09:00.334Z,78.7
2023-02-15T13:10:00.335Z,78.4
2023-02-15T13:11:00.762Z,79
2023-02-15T13:12:00.310Z,78.5
2023-02-15T13:13:00.312Z,79.1
2023-02-15T13:14:00.755Z,78.5
2023-02-15T13:15:00.362Z,77.8
2023-02-15T13:16:00.442Z,78.5
2023-02-15T13:17:00.320Z,77.8
2023-02-15T13:18:00.330Z,78.5
2023-02-15T13:19:00.340Z,78.2
2023-02-15T13:20:00.322Z,77.9
2023-02-15T13:21:00.549Z,78.2
2023-02-15T13:22:00.327Z,78.5
2023-02-15T13:23:00.357Z,77.9
2023-02-15T13:24:00.379Z,77.9
2023-02-15T13:25:00.325Z,78.2